sensor_id;sensor_type;location;lat;lon;timestamp;temperature;humidity
19728;DHT22;10015;52.530;13.390;2022-12-18T06:35:10;-5.10;99.90
19728;DHT22;10015;52.530;13.390;2022-12-18T06:37:36;-4.90;99.90
19728;DHT22;10015;52.530;13.390;2022-12-18T06:40:02;-4.70;99.90
19728;DHT22;10015;52.530;13.390;2022-12-18T06:42:28;-4.60;99.90
19728;DHT22;10015;52.530;13.390;2022-12-18T06:44:54;-4.60;99.90
19728;DHT22;10015;52.530;13.390;2022-12-18T06:47:20;-4.50;99.90
19728;DHT22;10015;52.530;13.390;2022-12-18T06:49:46;-4.80;99.90
19728;DHT22;10015;52.530;13.390;2022-12-18T06:52:12;-4.60;99.90
19728;DHT22;10015;52.530;13.390;2022-12-18T06:54:44;-4.70;99.90
19728;DHT22;10015;52.530;13.390;2022-12-18T06:57:10;-4.90;99.90
19728;DHT22;10015;52.530;13.390;2022-12-18T06:59:36;-5.00;99.90
19728;DHT22;10015;52.530;13.390;2022-12-18T07:02:02;-5.00;99.90
19728;DHT22;10015;52.530;13.390;2022-12-18T07:04:31;-5.10;99.90
19728;DHT22;10015;52.530;13.390;2022-12-18T07:06:57;-5.10;99.90
19728;DHT22;10015;52.530;13.390;2022-12-18T07:09:23;-5.40;99.90
19728;DHT22;10015;52.530;13.390;2022-12-18T07:11:49;-5.50;99.90
19728;DHT22;10015;52.530;13.390;2022-12-18T07:14:15;-5.70;99.90
19728;DHT22;10015;52.530;13.390;2022-12-18T07:16:41;-5.50;99.90
19728;DHT22;10015;52.530;13.390;2022-12-18T07:19:07;-5.40;99.90
19728;DHT22;10015;52.530;13.390;2022-12-18T07:21:33;-5.30;99.90
19728;DHT22;10015;52.530;13.390;2022-12-18T07:23:59;-5.30;99.90
19728;DHT22;10015;52.530;13.390;2022-12-18T07:26:25;-5.40;99.90
19728;DHT22;10015;52.530;13.390;2022-12-18T07:28:55;-5.30;99.90
19728;DHT22;10015;52.530;13.390;2022-12-18T07:31:21;-5.20;99.90
19728;DHT22;10015;52.530;13.390;2022-12-18T07:33:48;-5.30;99.90
19728;DHT22;10015;52.530;13.390;2022-12-18T07:36:14;-5.30;99.90
19728;DHT22;10015;52.530;13.390;2022-12-18T07:38:41;-5.00;99.90
19728;DHT22;10015;52.530;13.390;2022-12-18T07:41:09;-4.80;99.90
19728;DHT22;10015;52.530;13.390;2022-12-18T07:43:36;-5.10;99.90
19728;DHT22;10015;52.530;13.390;2022-12-18T07:46:03;-5.00;99.90
19728;DHT22;10015;52.530;13.390;2022-12-18T07:48:30;-5.10;99.90
19728;DHT22;10015;52.530;13.390;2022-12-18T07:51:03;-5.20;99.90
19728;DHT22;10015;52.530;13.390;2022-12-18T07:53:30;-5.20;99.90
19728;DHT22;10015;52.530;13.390;2022-12-18T07:55:57;-5.40;99.90
19728;DHT22;10015;52.530;13.390;2022-12-18T07:58:23;-5.40;99.90
19728;DHT22;10015;52.530;13.390;2022-12-18T08:00:49;-5.40;99.90
19728;DHT22;10015;52.530;13.390;2022-12-18T08:03:15;-5.20;99.90
19728;DHT22;10015;52.530;13.390;2022-12-18T08:05:41;-5.20;99.90
19728;DHT22;10015;52.530;13.390;2022-12-18T08:08:07;-5.30;99.90
19728;DHT22;10015;52.530;13.390;2022-12-18T08:10:33;-5.40;99.90
19728;DHT22;10015;52.530;13.390;2022-12-18T08:12:59;-5.50;99.90
19728;DHT22;10015;52.530;13.390;2022-12-18T08:15:24;-5.30;99.90
19728;DHT22;10015;52.530;13.390;2022-12-18T08:17:50;-5.20;99.90
19728;DHT22;10015;52.530;13.390;2022-12-18T08:20:17;-5.40;99.90
19728;DHT22;10015;52.530;13.390;2022-12-18T08:22:44;-5.20;99.90
19728;DHT22;10015;52.530;13.390;2022-12-18T08:25:10;-5.30;99.90
19728;DHT22;10015;52.530;13.390;2022-12-18T08:27:36;-5.20;99.90
19728;DHT22;10015;52.530;13.390;2022-12-18T08:30:03;-5.30;99.90
19728;DHT22;10015;52.530;13.390;2022-12-18T08:32:29;-5.50;99.90
19728;DHT22;10015;52.530;13.390;2022-12-18T08:34:55;-5.40;99.90
19728;DHT22;10015;52.530;13.390;2022-12-18T08:37:21;-5.20;99.90
19728;DHT22;10015;52.530;13.390;2022-12-18T08:39:48;-5.40;99.90
19728;DHT22;10015;52.530;13.390;2022-12-18T08:42:13;-5.20;99.90
19728;DHT22;10015;52.530;13.390;2022-12-18T08:44:58;-5.20;99.90
19728;DHT22;10015;52.530;13.390;2022-12-18T08:47:24;-5.10;99.90
19728;DHT22;10015;52.530;13.390;2022-12-18T08:49:51;-5.30;99.90
19728;DHT22;10015;52.530;13.390;2022-12-18T08:52:17;-5.20;99.90
19728;DHT22;10015;52.530;13.390;2022-12-18T08:54:43;-5.30;99.90
19728;DHT22;10015;52.530;13.390;2022-12-18T08:57:09;-5.30;99.90
19728;DHT22;10015;52.530;13.390;2022-12-18T08:59:35;-5.30;99.90
19728;DHT22;10015;52.530;13.390;2022-12-18T09:02:01;-5.20;99.90
19728;DHT22;10015;52.530;13.390;2022-12-18T09:04:27;-5.10;99.90
19728;DHT22;10015;52.530;13.390;2022-12-18T09:06:52;-5.00;99.90
19728;DHT22;10015;52.530;13.390;2022-12-18T09:09:21;-5.10;99.90
19728;DHT22;10015;52.530;13.390;2022-12-18T09:11:48;-5.30;99.90
19728;DHT22;10015;52.530;13.390;2022-12-18T09:14:14;-5.30;99.90
19728;DHT22;10015;52.530;13.390;2022-12-18T09:16:40;-5.30;99.90
19728;DHT22;10015;52.530;13.390;2022-12-18T09:19:06;-5.20;99.90
19728;DHT22;10015;52.530;13.390;2022-12-18T09:21:34;-5.10;99.90
19728;DHT22;10015;52.530;13.390;2022-12-18T09:24:00;-5.20;99.90
19728;DHT22;10015;52.530;13.390;2022-12-18T09:26:26;-5.20;99.90
19728;DHT22;10015;52.530;13.390;2022-12-18T09:28:53;-5.10;99.90
19728;DHT22;10015;52.530;13.390;2022-12-18T09:31:22;-5.20;99.90
19728;DHT22;10015;52.530;13.390;2022-12-18T09:33:48;-5.10;99.90
19728;DHT22;10015;52.530;13.390;2022-12-18T09:36:16;-5.10;99.90
19728;DHT22;10015;52.530;13.390;2022-12-18T09:38:42;-4.90;99.90
19728;DHT22;10015;52.530;13.390;2022-12-18T09:41:41;-4.90;99.90
19728;DHT22;10015;52.530;13.390;2022-12-18T09:44:28;-5.00;99.90
19728;DHT22;10015;52.530;13.390;2022-12-18T09:49:38;-4.90;99.90
19728;DHT22;10015;52.530;13.390;2022-12-18T09:54:46;-4.80;99.90
19728;DHT22;10015;52.530;13.390;2022-12-18T09:57:17;-4.70;99.90
19728;DHT22;10015;52.530;13.390;2022-12-18T09:59:47;-4.60;99.90
19728;DHT22;10015;52.530;13.390;2022-12-18T10:02:17;-4.70;99.90
19728;DHT22;10015;52.530;13.390;2022-12-18T10:04:46;-4.80;99.90
19728;DHT22;10015;52.530;13.390;2022-12-18T10:07:23;-4.80;99.90
19728;DHT22;10015;52.530;13.390;2022-12-18T10:11:09;-4.80;99.90
19728;DHT22;10015;52.530;13.390;2022-12-18T10:13:13;-4.70;99.90
19728;DHT22;10015;52.530;13.390;2022-12-18T10:16:08;-4.70;99.90
19728;DHT22;10015;52.530;13.390;2022-12-18T10:24:38;-4.50;99.90
19728;DHT22;10015;52.530;13.390;2022-12-18T10:27:16;-4.50;99.90
19728;DHT22;10015;52.530;13.390;2022-12-18T10:29:44;-4.50;99.90
19728;DHT22;10015;52.530;13.390;2022-12-18T10:32:30;-4.50;99.90
19728;DHT22;10015;52.530;13.390;2022-12-18T10:34:57;-4.50;99.90
19728;DHT22;10015;52.530;13.390;2022-12-18T10:37:26;-4.50;99.90
19728;DHT22;10015;52.530;13.390;2022-12-18T10:40:14;-4.40;99.90
19728;DHT22;10015;52.530;13.390;2022-12-18T10:42:42;-4.40;99.90
19728;DHT22;10015;52.530;13.390;2022-12-18T10:45:11;-4.30;99.90
19728;DHT22;10015;52.530;13.390;2022-12-18T10:47:42;-4.30;99.90
19728;DHT22;10015;52.530;13.390;2022-12-18T10:50:38;-4.20;99.90
19728;DHT22;10015;52.530;13.390;2022-12-18T10:53:05;-4.20;99.90
19728;DHT22;10015;52.530;13.390;2022-12-18T10:55:37;-4.20;99.90
19728;DHT22;10015;52.530;13.390;2022-12-18T10:58:30;-4.10;99.90
19728;DHT22;10015;52.530;13.390;2022-12-18T11:01:17;-4.10;99.90
19728;DHT22;10015;52.530;13.390;2022-12-18T11:06:23;-3.60;99.90
19728;DHT22;10015;52.530;13.390;2022-12-18T11:09:22;-3.80;99.90
19728;DHT22;10015;52.530;13.390;2022-12-18T11:11:50;-3.70;99.90
19728;DHT22;10015;52.530;13.390;2022-12-18T11:14:42;-3.80;99.90
19728;DHT22;10015;52.530;13.390;2022-12-18T11:19:56;-3.80;99.90
19728;DHT22;10015;52.530;13.390;2022-12-18T11:22:31;-3.70;99.90
19728;DHT22;10015;52.530;13.390;2022-12-18T11:25:17;-3.60;99.90
19728;DHT22;10015;52.530;13.390;2022-12-18T11:27:56;-3.70;99.90
19728;DHT22;10015;52.530;13.390;2022-12-18T11:30:29;-3.60;99.90
19728;DHT22;10015;52.530;13.390;2022-12-18T11:35:53;-3.80;99.90
19728;DHT22;10015;52.530;13.390;2022-12-18T11:38:26;-3.90;99.90
19728;DHT22;10015;52.530;13.390;2022-12-18T11:44:13;-3.80;99.90
19728;DHT22;10015;52.530;13.390;2022-12-18T11:46:47;-3.80;99.90
19728;DHT22;10015;52.530;13.390;2022-12-18T11:49:23;-3.90;99.90
19728;DHT22;10015;52.530;13.390;2022-12-18T11:54:43;-3.90;99.90
19728;DHT22;10015;52.530;13.390;2022-12-18T11:57:34;-4.00;99.90
19728;DHT22;10015;52.530;13.390;2022-12-18T12:00:04;-4.10;99.90
19728;DHT22;10015;52.530;13.390;2022-12-18T12:11:05;-4.10;99.90
19728;DHT22;10015;52.530;13.390;2022-12-18T12:21:40;-4.10;99.90
19728;DHT22;10015;52.530;13.390;2022-12-18T12:30:21;-4.10;99.90
19728;DHT22;10015;52.530;13.390;2022-12-18T12:33:23;-4.00;99.90
19728;DHT22;10015;52.530;13.390;2022-12-18T12:38:41;-4.00;99.90
19728;DHT22;10015;52.530;13.390;2022-12-18T12:41:14;-3.90;99.90
19728;DHT22;10015;52.530;13.390;2022-12-18T12:44:05;-3.80;99.90
19728;DHT22;10015;52.530;13.390;2022-12-18T12:46:36;-3.80;99.90
19728;DHT22;10015;52.530;13.390;2022-12-18T12:49:09;-3.60;99.90
19728;DHT22;10015;52.530;13.390;2022-12-18T12:51:39;-3.70;99.90
19728;DHT22;10015;52.530;13.390;2022-12-18T12:54:15;-3.80;99.90
19728;DHT22;10015;52.530;13.390;2022-12-18T12:57:12;-3.80;99.90
19728;DHT22;10015;52.530;13.390;2022-12-18T13:03:06;-3.90;99.90
19728;DHT22;10015;52.530;13.390;2022-12-18T13:05:49;-3.90;99.90
19728;DHT22;10015;52.530;13.390;2022-12-18T13:08:24;-3.90;99.90
19728;DHT22;10015;52.530;13.390;2022-12-18T13:10:52;-3.80;99.90
19728;DHT22;10015;52.530;13.390;2022-12-18T13:13:53;-3.80;99.90
19728;DHT22;10015;52.530;13.390;2022-12-18T13:16:21;-3.80;99.90
19728;DHT22;10015;52.530;13.390;2022-12-18T13:18:51;-3.80;99.90
19728;DHT22;10015;52.530;13.390;2022-12-18T13:23:49;-3.80;99.90
19728;DHT22;10015;52.530;13.390;2022-12-18T13:34:24;-3.70;99.90
19728;DHT22;10015;52.530;13.390;2022-12-18T13:36:52;-3.70;99.90
19728;DHT22;10015;52.530;13.390;2022-12-18T13:41:46;-3.60;99.90
19728;DHT22;10015;52.530;13.390;2022-12-18T13:44:35;-3.70;99.90
19728;DHT22;10015;52.530;13.390;2022-12-18T13:47:05;-3.60;99.90
19728;DHT22;10015;52.530;13.390;2022-12-18T13:49:36;-3.60;99.90
19728;DHT22;10015;52.530;13.390;2022-12-18T13:52:21;-3.60;99.90
19728;DHT22;10015;52.530;13.390;2022-12-18T13:54:51;-3.50;99.90
19728;DHT22;10015;52.530;13.390;2022-12-18T13:57:32;-3.60;99.90
19728;DHT22;10015;52.530;13.390;2022-12-18T14:00:14;-3.60;99.90
19728;DHT22;10015;52.530;13.390;2022-12-18T14:02:45;-3.50;99.90
19728;DHT22;10015;52.530;13.390;2022-12-18T14:05:31;-3.70;99.90
19728;DHT22;10015;52.530;13.390;2022-12-18T14:08:11;-3.80;99.90
19728;DHT22;10015;52.530;13.390;2022-12-18T14:10:43;-4.00;99.90
19728;DHT22;10015;52.530;13.390;2022-12-18T14:13:13;-4.00;99.90
19728;DHT22;10015;52.530;13.390;2022-12-18T14:15:46;-4.00;99.90
19728;DHT22;10015;52.530;13.390;2022-12-18T14:18:33;-4.10;99.90
19728;DHT22;10015;52.530;13.390;2022-12-18T14:21:03;-4.00;99.90
19728;DHT22;10015;52.530;13.390;2022-12-18T14:23:39;-4.00;99.90
19728;DHT22;10015;52.530;13.390;2022-12-18T14:28:47;-4.00;99.90
19728;DHT22;10015;52.530;13.390;2022-12-18T14:31:31;-4.00;99.90
19728;DHT22;10015;52.530;13.390;2022-12-18T14:33:57;-4.00;99.90
19728;DHT22;10015;52.530;13.390;2022-12-18T14:36:26;-4.00;99.90
19728;DHT22;10015;52.530;13.390;2022-12-18T14:38:57;-4.00;99.90
19728;DHT22;10015;52.530;13.390;2022-12-18T14:41:24;-4.00;99.90
19728;DHT22;10015;52.530;13.390;2022-12-18T14:43:53;-3.90;99.90
19728;DHT22;10015;52.530;13.390;2022-12-18T14:49:41;-3.90;99.90
19728;DHT22;10015;52.530;13.390;2022-12-18T14:51:59;-3.90;99.90
19728;DHT22;10015;52.530;13.390;2022-12-18T14:54:26;-4.00;99.90
19728;DHT22;10015;52.530;13.390;2022-12-18T14:57:06;-4.00;99.90
19728;DHT22;10015;52.530;13.390;2022-12-18T14:59:39;-4.00;99.90
19728;DHT22;10015;52.530;13.390;2022-12-18T15:02:24;-4.00;99.90
19728;DHT22;10015;52.530;13.390;2022-12-18T15:05:02;-4.00;99.90
19728;DHT22;10015;52.530;13.390;2022-12-18T15:07:45;-4.00;99.90
19728;DHT22;10015;52.530;13.390;2022-12-18T15:10:20;-4.00;99.90
19728;DHT22;10015;52.530;13.390;2022-12-18T15:20:48;-4.10;99.90
19728;DHT22;10015;52.530;13.390;2022-12-18T15:23:46;-4.10;99.90
19728;DHT22;10015;52.530;13.390;2022-12-18T15:26:15;-4.10;99.90
19728;DHT22;10015;52.530;13.390;2022-12-18T15:28:56;-4.10;99.90
19728;DHT22;10015;52.530;13.390;2022-12-18T15:31:34;-4.00;99.90
19728;DHT22;10015;52.530;13.390;2022-12-18T15:34:16;-4.00;99.90
19728;DHT22;10015;52.530;13.390;2022-12-18T15:36:43;-4.10;99.90
19728;DHT22;10015;52.530;13.390;2022-12-18T15:39:13;-4.10;99.90
19728;DHT22;10015;52.530;13.390;2022-12-18T15:41:39;-4.00;99.90
19728;DHT22;10015;52.530;13.390;2022-12-18T15:44:25;-4.00;99.90
19728;DHT22;10015;52.530;13.390;2022-12-18T15:46:51;-4.00;99.90
19728;DHT22;10015;52.530;13.390;2022-12-18T15:49:17;-4.00;99.90
19728;DHT22;10015;52.530;13.390;2022-12-18T15:51:43;-3.90;99.90
19728;DHT22;10015;52.530;13.390;2022-12-18T15:54:13;-4.00;99.90
19728;DHT22;10015;52.530;13.390;2022-12-18T15:56:41;-3.90;99.90
19728;DHT22;10015;52.530;13.390;2022-12-18T15:59:26;-3.90;99.90
19728;DHT22;10015;52.530;13.390;2022-12-18T16:01:52;-3.80;99.90
19728;DHT22;10015;52.530;13.390;2022-12-18T16:04:21;-3.80;99.90
19728;DHT22;10015;52.530;13.390;2022-12-18T16:06:48;-3.90;99.90
19728;DHT22;10015;52.530;13.390;2022-12-18T16:09:15;-4.00;99.90
19728;DHT22;10015;52.530;13.390;2022-12-18T16:11:42;-4.00;99.90
19728;DHT22;10015;52.530;13.390;2022-12-18T16:14:20;-3.90;99.90
19728;DHT22;10015;52.530;13.390;2022-12-18T16:16:49;-3.90;99.90
19728;DHT22;10015;52.530;13.390;2022-12-18T16:19:16;-4.00;99.90
19728;DHT22;10015;52.530;13.390;2022-12-18T16:21:42;-4.00;99.90
19728;DHT22;10015;52.530;13.390;2022-12-18T16:24:21;-4.00;99.90
19728;DHT22;10015;52.530;13.390;2022-12-18T16:26:48;-3.90;99.90
19728;DHT22;10015;52.530;13.390;2022-12-18T16:29:15;-4.00;99.90
19728;DHT22;10015;52.530;13.390;2022-12-18T16:31:42;-4.00;99.90
19728;DHT22;10015;52.530;13.390;2022-12-18T16:34:19;-4.00;99.90
19728;DHT22;10015;52.530;13.390;2022-12-18T16:36:51;-4.00;99.90
19728;DHT22;10015;52.530;13.390;2022-12-18T16:39:19;-4.00;99.90
19728;DHT22;10015;52.530;13.390;2022-12-18T16:41:46;-4.00;99.90
19728;DHT22;10015;52.530;13.390;2022-12-18T16:44:13;-4.00;99.90
19728;DHT22;10015;52.530;13.390;2022-12-18T16:46:40;-4.00;99.90
19728;DHT22;10015;52.530;13.390;2022-12-18T16:49:09;-4.00;99.90
19728;DHT22;10015;52.530;13.390;2022-12-18T16:51:36;-4.00;99.90
19728;DHT22;10015;52.530;13.390;2022-12-18T16:54:02;-4.00;99.90
19728;DHT22;10015;52.530;13.390;2022-12-18T16:56:28;-4.00;99.90
19728;DHT22;10015;52.530;13.390;2022-12-18T16:58:56;-4.00;99.90
19728;DHT22;10015;52.530;13.390;2022-12-18T17:01:22;-4.00;99.90
19728;DHT22;10015;52.530;13.390;2022-12-18T17:03:58;-4.00;99.90
19728;DHT22;10015;52.530;13.390;2022-12-18T17:06:28;-4.00;99.90
19728;DHT22;10015;52.530;13.390;2022-12-18T17:09:00;-3.90;99.90
19728;DHT22;10015;52.530;13.390;2022-12-18T17:11:28;-3.90;99.90
19728;DHT22;10015;52.530;13.390;2022-12-18T17:13:55;-4.00;99.90
19728;DHT22;10015;52.530;13.390;2022-12-18T17:16:22;-3.90;99.90
19728;DHT22;10015;52.530;13.390;2022-12-18T17:18:49;-3.80;99.90
19728;DHT22;10015;52.530;13.390;2022-12-18T17:21:15;-3.80;99.90
19728;DHT22;10015;52.530;13.390;2022-12-18T17:23:44;-3.80;99.90
19728;DHT22;10015;52.530;13.390;2022-12-18T17:26:12;-3.70;99.90
19728;DHT22;10015;52.530;13.390;2022-12-18T17:28:40;-3.60;99.90
19728;DHT22;10015;52.530;13.390;2022-12-18T17:31:15;-3.70;99.90
19728;DHT22;10015;52.530;13.390;2022-12-18T17:33:42;-3.80;99.90
19728;DHT22;10015;52.530;13.390;2022-12-18T17:36:09;-3.80;99.90
19728;DHT22;10015;52.530;13.390;2022-12-18T17:38:36;-3.50;99.90
19728;DHT22;10015;52.530;13.390;2022-12-18T17:41:06;-3.60;99.90
19728;DHT22;10015;52.530;13.390;2022-12-18T17:43:32;-3.70;99.90
19728;DHT22;10015;52.530;13.390;2022-12-18T17:46:03;-3.70;99.90
19728;DHT22;10015;52.530;13.390;2022-12-18T17:48:29;-3.70;99.90
19728;DHT22;10015;52.530;13.390;2022-12-18T17:51:03;-3.80;99.90
19728;DHT22;10015;52.530;13.390;2022-12-18T17:53:30;-3.80;99.90
19728;DHT22;10015;52.530;13.390;2022-12-18T17:55:58;-3.80;99.90
19728;DHT22;10015;52.530;13.390;2022-12-18T17:58:29;-3.80;99.90
19728;DHT22;10015;52.530;13.390;2022-12-18T18:00:55;-3.80;99.90
19728;DHT22;10015;52.530;13.390;2022-12-18T18:03:21;-3.80;99.90
19728;DHT22;10015;52.530;13.390;2022-12-18T18:05:47;-3.80;99.90
19728;DHT22;10015;52.530;13.390;2022-12-18T18:08:13;-3.80;99.90
19728;DHT22;10015;52.530;13.390;2022-12-18T18:10:39;-3.80;99.90
19728;DHT22;10015;52.530;13.390;2022-12-18T18:13:08;-3.90;99.90
19728;DHT22;10015;52.530;13.390;2022-12-18T18:16:01;-3.90;99.90
19728;DHT22;10015;52.530;13.390;2022-12-18T18:18:29;-4.00;99.90
19728;DHT22;10015;52.530;13.390;2022-12-18T18:20:55;-4.00;99.90
19728;DHT22;10015;52.530;13.390;2022-12-18T18:23:21;-3.90;99.90
19728;DHT22;10015;52.530;13.390;2022-12-18T18:25:47;-3.90;99.90
19728;DHT22;10015;52.530;13.390;2022-12-18T18:28:16;-4.00;99.90
19728;DHT22;10015;52.530;13.390;2022-12-18T18:30:42;-4.00;99.90
19728;DHT22;10015;52.530;13.390;2022-12-18T18:33:08;-4.00;99.90
19728;DHT22;10015;52.530;13.390;2022-12-18T18:35:34;-4.00;99.90
19728;DHT22;10015;52.530;13.390;2022-12-18T18:38:00;-4.00;99.90
19728;DHT22;10015;52.530;13.390;2022-12-18T18:40:29;-4.00;99.90
19728;DHT22;10015;52.530;13.390;2022-12-18T18:42:55;-4.10;99.90
19728;DHT22;10015;52.530;13.390;2022-12-18T18:45:21;-4.10;99.90
19728;DHT22;10015;52.530;13.390;2022-12-18T18:47:47;-4.10;99.90
19728;DHT22;10015;52.530;13.390;2022-12-18T18:50:13;-4.10;99.90
19728;DHT22;10015;52.530;13.390;2022-12-18T18:52:39;-4.10;99.90
19728;DHT22;10015;52.530;13.390;2022-12-18T18:55:06;-4.20;99.90
19728;DHT22;10015;52.530;13.390;2022-12-18T18:57:32;-4.20;99.90
19728;DHT22;10015;52.530;13.390;2022-12-18T18:59:58;-4.10;99.90
19728;DHT22;10015;52.530;13.390;2022-12-18T19:02:24;-4.10;99.90
19728;DHT22;10015;52.530;13.390;2022-12-18T19:04:51;-4.10;99.90
19728;DHT22;10015;52.530;13.390;2022-12-18T19:07:18;-4.20;99.90
19728;DHT22;10015;52.530;13.390;2022-12-18T19:09:45;-4.10;99.90
19728;DHT22;10015;52.530;13.390;2022-12-18T19:12:16;-4.20;99.90
19728;DHT22;10015;52.530;13.390;2022-12-18T19:15:01;-4.20;99.90
19728;DHT22;10015;52.530;13.390;2022-12-18T19:17:28;-4.30;99.90
19728;DHT22;10015;52.530;13.390;2022-12-18T19:19:54;-4.30;99.90
19728;DHT22;10015;52.530;13.390;2022-12-18T19:22:22;-4.30;99.90
19728;DHT22;10015;52.530;13.390;2022-12-18T19:24:48;-4.40;99.90
19728;DHT22;10015;52.530;13.390;2022-12-18T19:27:14;-4.30;99.90
19728;DHT22;10015;52.530;13.390;2022-12-18T19:29:41;-4.30;99.90
19728;DHT22;10015;52.530;13.390;2022-12-18T19:32:08;-4.40;99.90
19728;DHT22;10015;52.530;13.390;2022-12-18T19:34:34;-4.40;99.90
19728;DHT22;10015;52.530;13.390;2022-12-18T19:37:00;-4.40;99.90
19728;DHT22;10015;52.530;13.390;2022-12-18T19:39:26;-4.30;99.90
19728;DHT22;10015;52.530;13.390;2022-12-18T19:41:52;-4.30;99.90
19728;DHT22;10015;52.530;13.390;2022-12-18T19:44:18;-4.30;99.90
19728;DHT22;10015;52.530;13.390;2022-12-18T19:46:45;-4.40;99.90
19728;DHT22;10015;52.530;13.390;2022-12-18T19:49:12;-4.40;99.90
19728;DHT22;10015;52.530;13.390;2022-12-18T19:51:41;-4.40;99.90
19728;DHT22;10015;52.530;13.390;2022-12-18T19:54:07;-4.40;99.90
19728;DHT22;10015;52.530;13.390;2022-12-18T19:56:34;-4.30;99.90
19728;DHT22;10015;52.530;13.390;2022-12-18T19:59:02;-4.30;99.90
19728;DHT22;10015;52.530;13.390;2022-12-18T20:01:29;-4.30;99.90
19728;DHT22;10015;52.530;13.390;2022-12-18T20:03:55;-4.30;99.90
19728;DHT22;10015;52.530;13.390;2022-12-18T20:06:28;-4.20;99.90
19728;DHT22;10015;52.530;13.390;2022-12-18T20:08:58;-4.20;99.90
19728;DHT22;10015;52.530;13.390;2022-12-18T20:11:24;-4.20;99.90
19728;DHT22;10015;52.530;13.390;2022-12-18T20:13:50;-4.20;99.90
19728;DHT22;10015;52.530;13.390;2022-12-18T20:16:16;-4.30;99.90
19728;DHT22;10015;52.530;13.390;2022-12-18T20:18:42;-4.20;99.90
19728;DHT22;10015;52.530;13.390;2022-12-18T20:21:08;-4.30;99.90
19728;DHT22;10015;52.530;13.390;2022-12-18T20:23:34;-4.30;99.90
19728;DHT22;10015;52.530;13.390;2022-12-18T20:26:00;-4.40;99.90
19728;DHT22;10015;52.530;13.390;2022-12-18T20:28:27;-4.40;99.90
19728;DHT22;10015;52.530;13.390;2022-12-18T20:31:00;-4.50;99.90
19728;DHT22;10015;52.530;13.390;2022-12-18T20:33:26;-4.40;99.90
19728;DHT22;10015;52.530;13.390;2022-12-18T20:35:53;-4.40;99.90
19728;DHT22;10015;52.530;13.390;2022-12-18T20:38:19;-4.50;99.90
19728;DHT22;10015;52.530;13.390;2022-12-18T20:40:45;-4.50;99.90
19728;DHT22;10015;52.530;13.390;2022-12-18T20:43:11;-4.40;99.90
19728;DHT22;10015;52.530;13.390;2022-12-18T20:45:37;-4.50;99.90
19728;DHT22;10015;52.530;13.390;2022-12-18T20:48:03;-4.40;99.90
19728;DHT22;10015;52.530;13.390;2022-12-18T20:50:29;-4.40;99.90
19728;DHT22;10015;52.530;13.390;2022-12-18T20:52:55;-4.40;99.90
19728;DHT22;10015;52.530;13.390;2022-12-18T20:55:21;-4.40;99.90
19728;DHT22;10015;52.530;13.390;2022-12-18T20:57:47;-4.40;99.90
19728;DHT22;10015;52.530;13.390;2022-12-18T21:00:14;-4.40;99.90
19728;DHT22;10015;52.530;13.390;2022-12-18T21:02:40;-4.40;99.90
19728;DHT22;10015;52.530;13.390;2022-12-18T21:05:07;-4.40;99.90
19728;DHT22;10015;52.530;13.390;2022-12-18T21:07:33;-4.40;99.90
19728;DHT22;10015;52.530;13.390;2022-12-18T21:09:58;-4.50;99.90
19728;DHT22;10015;52.530;13.390;2022-12-18T21:12:24;-4.50;99.90
19728;DHT22;10015;52.530;13.390;2022-12-18T21:15:07;-4.40;99.90
19728;DHT22;10015;52.530;13.390;2022-12-18T21:17:34;-4.40;99.90
19728;DHT22;10015;52.530;13.390;2022-12-18T21:20:00;-4.40;99.90
19728;DHT22;10015;52.530;13.390;2022-12-18T21:22:26;-4.40;99.90
19728;DHT22;10015;52.530;13.390;2022-12-18T21:24:52;-4.40;99.90
19728;DHT22;10015;52.530;13.390;2022-12-18T21:27:19;-4.40;99.90
19728;DHT22;10015;52.530;13.390;2022-12-18T21:29:45;-4.50;99.90
19728;DHT22;10015;52.530;13.390;2022-12-18T21:32:12;-4.40;99.90
19728;DHT22;10015;52.530;13.390;2022-12-18T21:34:39;-4.40;99.90
19728;DHT22;10015;52.530;13.390;2022-12-18T21:37:05;-4.40;99.90
19728;DHT22;10015;52.530;13.390;2022-12-18T21:39:31;-4.40;99.90
19728;DHT22;10015;52.530;13.390;2022-12-18T21:41:57;-4.30;99.90
19728;DHT22;10015;52.530;13.390;2022-12-18T21:44:43;-4.20;99.90
19728;DHT22;10015;52.530;13.390;2022-12-18T21:47:10;-4.20;99.90
19728;DHT22;10015;52.530;13.390;2022-12-18T21:49:36;-4.20;99.90
19728;DHT22;10015;52.530;13.390;2022-12-18T21:52:03;-4.30;99.90
19728;DHT22;10015;52.530;13.390;2022-12-18T21:54:29;-4.30;99.90
19728;DHT22;10015;52.530;13.390;2022-12-18T21:56:56;-4.30;99.90
19728;DHT22;10015;52.530;13.390;2022-12-18T21:59:32;-4.30;99.90
19728;DHT22;10015;52.530;13.390;2022-12-18T22:02:01;-4.30;99.90
19728;DHT22;10015;52.530;13.390;2022-12-18T22:04:28;-4.30;99.90
19728;DHT22;10015;52.530;13.390;2022-12-18T22:06:54;-4.30;99.90
19728;DHT22;10015;52.530;13.390;2022-12-18T22:09:22;-4.30;99.90
19728;DHT22;10015;52.530;13.390;2022-12-18T22:11:49;-4.30;99.90
19728;DHT22;10015;52.530;13.390;2022-12-18T22:14:16;-4.30;99.90
19728;DHT22;10015;52.530;13.390;2022-12-18T22:16:43;-4.30;99.90
19728;DHT22;10015;52.530;13.390;2022-12-18T22:19:09;-4.20;99.90
19728;DHT22;10015;52.530;13.390;2022-12-18T22:21:38;-4.30;99.90
19728;DHT22;10015;52.530;13.390;2022-12-18T22:24:07;-4.20;99.90
19728;DHT22;10015;52.530;13.390;2022-12-18T22:26:35;-4.20;99.90
19728;DHT22;10015;52.530;13.390;2022-12-18T22:29:02;-4.20;99.90
19728;DHT22;10015;52.530;13.390;2022-12-18T22:31:47;-4.20;99.90
19728;DHT22;10015;52.530;13.390;2022-12-18T22:34:13;-4.10;99.90
19728;DHT22;10015;52.530;13.390;2022-12-18T22:36:46;-4.10;99.90
19728;DHT22;10015;52.530;13.390;2022-12-18T22:39:24;-4.10;99.90
19728;DHT22;10015;52.530;13.390;2022-12-18T22:41:51;-4.10;99.90
19728;DHT22;10015;52.530;13.390;2022-12-18T22:44:18;-4.00;99.90
19728;DHT22;10015;52.530;13.390;2022-12-18T22:46:46;-4.10;99.90
19728;DHT22;10015;52.530;13.390;2022-12-18T22:49:18;-4.10;99.90
19728;DHT22;10015;52.530;13.390;2022-12-18T22:51:45;-4.10;99.90
19728;DHT22;10015;52.530;13.390;2022-12-18T22:54:11;-4.00;99.90
19728;DHT22;10015;52.530;13.390;2022-12-18T22:56:37;-4.10;99.90
19728;DHT22;10015;52.530;13.390;2022-12-18T22:59:04;-4.10;99.90
19728;DHT22;10015;52.530;13.390;2022-12-18T23:01:31;-4.10;99.90
19728;DHT22;10015;52.530;13.390;2022-12-18T23:03:57;-4.10;99.90
19728;DHT22;10015;52.530;13.390;2022-12-18T23:06:24;-4.10;99.90
19728;DHT22;10015;52.530;13.390;2022-12-18T23:08:51;-4.10;99.90
19728;DHT22;10015;52.530;13.390;2022-12-18T23:11:18;-4.10;99.90
19728;DHT22;10015;52.530;13.390;2022-12-18T23:13:44;-4.10;99.90
19728;DHT22;10015;52.530;13.390;2022-12-18T23:16:14;-4.00;99.90
19728;DHT22;10015;52.530;13.390;2022-12-18T23:18:41;-4.10;99.90
19728;DHT22;10015;52.530;13.390;2022-12-18T23:21:16;-4.10;99.90
19728;DHT22;10015;52.530;13.390;2022-12-18T23:23:43;-4.10;99.90
19728;DHT22;10015;52.530;13.390;2022-12-18T23:26:11;-4.10;99.90
19728;DHT22;10015;52.530;13.390;2022-12-18T23:28:37;-4.10;99.90